sensor_id;sensor_type;location;lat;lon;timestamp;P1;durP1;ratioP1;P2;durP2;ratioP2
48727;SDS011;34527;45.618;5.130;2024-03-07T00:01:54;13.82;;;8.88;;
48727;SDS011;34527;45.618;5.130;2024-03-07T00:04:20;14.63;;;8.43;;
48727;SDS011;34527;45.618;5.130;2024-03-07T00:06:46;15.70;;;9.35;;
48727;SDS011;34527;45.618;5.130;2024-03-07T00:09:11;15.07;;;9.10;;
48727;SDS011;34527;45.618;5.130;2024-03-07T00:11:37;20.42;;;9.88;;
48727;SDS011;34527;45.618;5.130;2024-03-07T00:14:03;17.05;;;9.77;;
48727;SDS011;34527;45.618;5.130;2024-03-07T00:16:31;16.58;;;9.52;;
48727;SDS011;34527;45.618;5.130;2024-03-07T00:18:58;16.23;;;9.20;;
48727;SDS011;34527;45.618;5.130;2024-03-07T00:21:25;15.43;;;9.55;;
48727;SDS011;34527;45.618;5.130;2024-03-07T00:23:51;17.77;;;9.95;;
48727;SDS011;34527;45.618;5.130;2024-03-07T00:26:17;16.98;;;10.95;;
48727;SDS011;34527;45.618;5.130;2024-03-07T00:28:43;17.38;;;10.70;;
48727;SDS011;34527;45.618;5.130;2024-03-07T00:31:09;16.60;;;10.20;;
48727;SDS011;34527;45.618;5.130;2024-03-07T00:33:34;15.13;;;9.98;;
48727;SDS011;34527;45.618;5.130;2024-03-07T00:36:00;18.40;;;10.57;;
48727;SDS011;34527;45.618;5.130;2024-03-07T00:38:26;18.27;;;10.00;;
48727;SDS011;34527;45.618;5.130;2024-03-07T00:40:52;15.20;;;10.63;;
48727;SDS011;34527;45.618;5.130;2024-03-07T00:43:17;16.85;;;10.77;;
48727;SDS011;34527;45.618;5.130;2024-03-07T00:45:43;25.30;;;10.80;;
48727;SDS011;34527;45.618;5.130;2024-03-07T00:48:08;16.48;;;10.18;;
48727;SDS011;34527;45.618;5.130;2024-03-07T00:50:36;15.30;;;10.98;;
48727;SDS011;34527;45.618;5.130;2024-03-07T00:53:01;16.13;;;10.07;;
48727;SDS011;34527;45.618;5.130;2024-03-07T00:55:27;17.05;;;10.23;;
48727;SDS011;34527;45.618;5.130;2024-03-07T00:57:53;15.95;;;10.48;;
48727;SDS011;34527;45.618;5.130;2024-03-07T01:00:18;24.02;;;12.23;;
48727;SDS011;34527;45.618;5.130;2024-03-07T01:02:46;18.50;;;11.48;;
48727;SDS011;34527;45.618;5.130;2024-03-07T01:05:12;18.30;;;10.75;;
48727;SDS011;34527;45.618;5.130;2024-03-07T01:07:42;17.02;;;11.05;;
48727;SDS011;34527;45.618;5.130;2024-03-07T01:10:09;18.80;;;11.10;;
48727;SDS011;34527;45.618;5.130;2024-03-07T01:12:35;17.67;;;10.10;;
48727;SDS011;34527;45.618;5.130;2024-03-07T01:15:01;16.23;;;10.35;;
48727;SDS011;34527;45.618;5.130;2024-03-07T01:17:29;17.88;;;10.40;;
48727;SDS011;34527;45.618;5.130;2024-03-07T01:19:54;20.02;;;10.13;;
48727;SDS011;34527;45.618;5.130;2024-03-07T01:22:21;17.98;;;10.60;;
48727;SDS011;34527;45.618;5.130;2024-03-07T01:24:47;15.23;;;10.43;;
48727;SDS011;34527;45.618;5.130;2024-03-07T01:27:13;16.63;;;10.18;;
48727;SDS011;34527;45.618;5.130;2024-03-07T01:29:38;19.75;;;11.48;;
48727;SDS011;34527;45.618;5.130;2024-03-07T01:32:06;20.13;;;10.95;;
48727;SDS011;34527;45.618;5.130;2024-03-07T01:34:32;16.38;;;10.00;;
48727;SDS011;34527;45.618;5.130;2024-03-07T01:36:57;15.70;;;9.27;;
48727;SDS011;34527;45.618;5.130;2024-03-07T01:39:23;14.68;;;9.10;;
48727;SDS011;34527;45.618;5.130;2024-03-07T01:41:49;18.25;;;9.23;;
48727;SDS011;34527;45.618;5.130;2024-03-07T01:44:14;14.13;;;9.20;;
48727;SDS011;34527;45.618;5.130;2024-03-07T01:46:40;14.90;;;8.93;;
48727;SDS011;34527;45.618;5.130;2024-03-07T01:49:09;14.38;;;9.38;;
48727;SDS011;34527;45.618;5.130;2024-03-07T01:51:36;15.02;;;9.10;;
48727;SDS011;34527;45.618;5.130;2024-03-07T01:54:02;12.43;;;8.93;;
48727;SDS011;34527;45.618;5.130;2024-03-07T01:56:28;14.57;;;9.45;;
48727;SDS011;34527;45.618;5.130;2024-03-07T01:58:54;14.32;;;8.50;;
48727;SDS011;34527;45.618;5.130;2024-03-07T02:01:22;15.25;;;9.63;;
48727;SDS011;34527;45.618;5.130;2024-03-07T02:03:48;16.88;;;9.70;;
48727;SDS011;34527;45.618;5.130;2024-03-07T02:06:13;17.75;;;9.68;;
48727;SDS011;34527;45.618;5.130;2024-03-07T02:08:39;15.40;;;10.00;;
48727;SDS011;34527;45.618;5.130;2024-03-07T02:11:05;16.55;;;10.10;;
48727;SDS011;34527;45.618;5.130;2024-03-07T02:13:31;15.20;;;10.52;;
48727;SDS011;34527;45.618;5.130;2024-03-07T02:15:56;19.35;;;11.70;;
48727;SDS011;34527;45.618;5.130;2024-03-07T02:18:23;15.30;;;10.20;;
48727;SDS011;34527;45.618;5.130;2024-03-07T02:20:49;16.00;;;9.77;;
48727;SDS011;34527;45.618;5.130;2024-03-07T02:23:15;18.48;;;10.65;;
48727;SDS011;34527;45.618;5.130;2024-03-07T02:25:41;16.83;;;11.05;;
48727;SDS011;34527;45.618;5.130;2024-03-07T02:28:07;15.38;;;10.88;;
48727;SDS011;34527;45.618;5.130;2024-03-07T02:30:33;15.82;;;10.85;;
48727;SDS011;34527;45.618;5.130;2024-03-07T02:32:58;14.60;;;10.02;;
48727;SDS011;34527;45.618;5.130;2024-03-07T02:35:31;15.52;;;10.13;;
48727;SDS011;34527;45.618;5.130;2024-03-07T02:37:59;15.48;;;10.18;;
48727;SDS011;34527;45.618;5.130;2024-03-07T02:40:24;16.65;;;9.85;;
48727;SDS011;34527;45.618;5.130;2024-03-07T02:42:50;19.45;;;11.95;;
48727;SDS011;34527;45.618;5.130;2024-03-07T02:45:15;17.67;;;10.57;;
48727;SDS011;34527;45.618;5.130;2024-03-07T02:47:41;18.40;;;11.68;;
48727;SDS011;34527;45.618;5.130;2024-03-07T02:50:08;16.10;;;10.90;;
48727;SDS011;34527;45.618;5.130;2024-03-07T02:52:35;15.10;;;10.55;;
48727;SDS011;34527;45.618;5.130;2024-03-07T02:55:00;14.43;;;9.88;;
48727;SDS011;34527;45.618;5.130;2024-03-07T02:57:28;15.80;;;10.70;;
48727;SDS011;34527;45.618;5.130;2024-03-07T02:59:53;16.85;;;9.77;;
48727;SDS011;34527;45.618;5.130;2024-03-07T03:02:19;16.42;;;9.90;;
48727;SDS011;34527;45.618;5.130;2024-03-07T03:04:45;16.95;;;10.77;;
48727;SDS011;34527;45.618;5.130;2024-03-07T03:07:10;16.50;;;10.13;;
48727;SDS011;34527;45.618;5.130;2024-03-07T03:09:36;20.48;;;11.18;;
48727;SDS011;34527;45.618;5.130;2024-03-07T03:12:08;18.30;;;10.48;;
48727;SDS011;34527;45.618;5.130;2024-03-07T03:14:34;21.90;;;11.35;;
48727;SDS011;34527;45.618;5.130;2024-03-07T03:16:59;18.80;;;10.98;;
48727;SDS011;34527;45.618;5.130;2024-03-07T03:19:25;20.60;;;11.82;;
48727;SDS011;34527;45.618;5.130;2024-03-07T03:21:51;20.85;;;12.02;;
48727;SDS011;34527;45.618;5.130;2024-03-07T03:24:17;18.40;;;10.52;;
48727;SDS011;34527;45.618;5.130;2024-03-07T03:26:43;18.08;;;10.95;;
48727;SDS011;34527;45.618;5.130;2024-03-07T03:29:09;16.88;;;11.20;;
48727;SDS011;34527;45.618;5.130;2024-03-07T03:31:36;19.45;;;11.77;;
48727;SDS011;34527;45.618;5.130;2024-03-07T03:34:02;16.52;;;11.00;;
48727;SDS011;34527;45.618;5.130;2024-03-07T03:36:27;18.75;;;10.45;;
48727;SDS011;34527;45.618;5.130;2024-03-07T03:38:54;19.42;;;10.68;;
48727;SDS011;34527;45.618;5.130;2024-03-07T03:41:20;17.02;;;10.85;;
48727;SDS011;34527;45.618;5.130;2024-03-07T03:43:45;19.35;;;10.68;;
48727;SDS011;34527;45.618;5.130;2024-03-07T03:46:12;13.82;;;10.25;;
48727;SDS011;34527;45.618;5.130;2024-03-07T03:48:38;15.40;;;10.38;;
48727;SDS011;34527;45.618;5.130;2024-03-07T03:51:06;17.55;;;10.63;;
48727;SDS011;34527;45.618;5.130;2024-03-07T03:53:33;13.80;;;10.18;;
48727;SDS011;34527;45.618;5.130;2024-03-07T03:55:58;16.33;;;10.40;;
48727;SDS011;34527;45.618;5.130;2024-03-07T03:58:24;21.23;;;11.55;;
48727;SDS011;34527;45.618;5.130;2024-03-07T04:00:50;23.45;;;11.75;;
48727;SDS011;34527;45.618;5.130;2024-03-07T04:03:16;19.98;;;12.43;;
48727;SDS011;34527;45.618;5.130;2024-03-07T04:05:42;19.50;;;12.75;;
48727;SDS011;34527;45.618;5.130;2024-03-07T04:08:08;20.00;;;13.30;;
48727;SDS011;34527;45.618;5.130;2024-03-07T04:10:34;21.90;;;13.07;;
48727;SDS011;34527;45.618;5.130;2024-03-07T04:13:00;20.98;;;13.60;;
48727;SDS011;34527;45.618;5.130;2024-03-07T04:15:25;24.73;;;14.45;;
48727;SDS011;34527;45.618;5.130;2024-03-07T04:17:52;21.10;;;13.13;;
48727;SDS011;34527;45.618;5.130;2024-03-07T04:20:18;20.52;;;12.98;;
48727;SDS011;34527;45.618;5.130;2024-03-07T04:22:43;18.50;;;13.07;;
48727;SDS011;34527;45.618;5.130;2024-03-07T04:25:09;20.98;;;13.38;;
48727;SDS011;34527;45.618;5.130;2024-03-07T04:27:35;20.77;;;13.20;;
48727;SDS011;34527;45.618;5.130;2024-03-07T04:30:05;18.63;;;13.80;;
48727;SDS011;34527;45.618;5.130;2024-03-07T04:32:32;23.98;;;14.98;;
48727;SDS011;34527;45.618;5.130;2024-03-07T04:34:59;22.48;;;14.95;;
48727;SDS011;34527;45.618;5.130;2024-03-07T04:37:25;21.77;;;15.20;;
48727;SDS011;34527;45.618;5.130;2024-03-07T04:39:52;21.10;;;14.63;;
48727;SDS011;34527;45.618;5.130;2024-03-07T04:42:18;27.92;;;16.20;;
48727;SDS011;34527;45.618;5.130;2024-03-07T04:44:44;27.70;;;14.77;;
48727;SDS011;34527;45.618;5.130;2024-03-07T04:47:09;21.92;;;15.90;;
48727;SDS011;34527;45.618;5.130;2024-03-07T04:49:35;22.60;;;15.52;;
48727;SDS011;34527;45.618;5.130;2024-03-07T04:52:02;30.08;;;15.48;;
48727;SDS011;34527;45.618;5.130;2024-03-07T04:54:30;25.75;;;15.02;;
48727;SDS011;34527;45.618;5.130;2024-03-07T04:56:56;28.17;;;16.45;;
48727;SDS011;34527;45.618;5.130;2024-03-07T04:59:22;24.95;;;16.65;;
48727;SDS011;34527;45.618;5.130;2024-03-07T05:01:48;23.55;;;15.02;;
48727;SDS011;34527;45.618;5.130;2024-03-07T05:04:15;25.52;;;14.98;;
48727;SDS011;34527;45.618;5.130;2024-03-07T05:06:41;21.00;;;14.50;;
48727;SDS011;34527;45.618;5.130;2024-03-07T05:09:08;27.63;;;15.18;;
48727;SDS011;34527;45.618;5.130;2024-03-07T05:11:47;23.90;;;14.05;;
48727;SDS011;34527;45.618;5.130;2024-03-07T05:14:14;20.77;;;14.45;;
48727;SDS011;34527;45.618;5.130;2024-03-07T05:16:41;20.85;;;14.25;;
48727;SDS011;34527;45.618;5.130;2024-03-07T05:19:08;24.17;;;15.55;;
48727;SDS011;34527;45.618;5.130;2024-03-07T05:21:34;22.88;;;14.07;;
48727;SDS011;34527;45.618;5.130;2024-03-07T05:24:06;22.85;;;14.63;;
48727;SDS011;34527;45.618;5.130;2024-03-07T05:26:33;20.23;;;13.07;;
48727;SDS011;34527;45.618;5.130;2024-03-07T05:29:05;20.98;;;14.05;;
48727;SDS011;34527;45.618;5.130;2024-03-07T05:31:36;18.58;;;12.23;;
48727;SDS011;34527;45.618;5.130;2024-03-07T05:34:03;21.92;;;12.45;;
48727;SDS011;34527;45.618;5.130;2024-03-07T05:36:33;18.20;;;12.40;;
48727;SDS011;34527;45.618;5.130;2024-03-07T05:38:59;19.90;;;11.57;;
48727;SDS011;34527;45.618;5.130;2024-03-07T05:41:26;18.65;;;12.32;;
48727;SDS011;34527;45.618;5.130;2024-03-07T05:43:57;19.60;;;12.55;;
48727;SDS011;34527;45.618;5.130;2024-03-07T05:46:23;18.02;;;11.98;;
48727;SDS011;34527;45.618;5.130;2024-03-07T05:48:49;19.33;;;12.63;;
48727;SDS011;34527;45.618;5.130;2024-03-07T05:51:17;16.27;;;11.10;;
48727;SDS011;34527;45.618;5.130;2024-03-07T05:53:43;17.27;;;11.98;;
48727;SDS011;34527;45.618;5.130;2024-03-07T05:56:09;19.27;;;12.35;;
48727;SDS011;34527;45.618;5.130;2024-03-07T05:58:34;18.58;;;13.50;;
48727;SDS011;34527;45.618;5.130;2024-03-07T06:01:00;21.88;;;15.18;;
48727;SDS011;34527;45.618;5.130;2024-03-07T06:03:26;24.40;;;16.25;;
48727;SDS011;34527;45.618;5.130;2024-03-07T06:05:51;22.92;;;15.18;;
48727;SDS011;34527;45.618;5.130;2024-03-07T06:08:18;18.58;;;13.45;;
48727;SDS011;34527;45.618;5.130;2024-03-07T06:10:45;21.27;;;13.80;;
48727;SDS011;34527;45.618;5.130;2024-03-07T06:13:15;24.25;;;14.25;;
48727;SDS011;34527;45.618;5.130;2024-03-07T06:15:44;18.88;;;13.45;;
48727;SDS011;34527;45.618;5.130;2024-03-07T06:18:11;19.67;;;11.90;;
48727;SDS011;34527;45.618;5.130;2024-03-07T06:20:38;18.35;;;11.98;;
48727;SDS011;34527;45.618;5.130;2024-03-07T06:23:07;17.38;;;11.77;;
48727;SDS011;34527;45.618;5.130;2024-03-07T06:25:34;17.50;;;11.70;;
48727;SDS011;34527;45.618;5.130;2024-03-07T06:28:11;19.02;;;11.55;;
48727;SDS011;34527;45.618;5.130;2024-03-07T06:30:40;20.45;;;11.98;;
48727;SDS011;34527;45.618;5.130;2024-03-07T06:33:10;21.10;;;13.10;;
48727;SDS011;34527;45.618;5.130;2024-03-07T06:35:36;22.67;;;13.65;;
48727;SDS011;34527;45.618;5.130;2024-03-07T06:38:04;21.05;;;11.77;;
48727;SDS011;34527;45.618;5.130;2024-03-07T06:40:31;16.92;;;12.27;;
48727;SDS011;34527;45.618;5.130;2024-03-07T06:42:57;20.23;;;11.05;;
48727;SDS011;34527;45.618;5.130;2024-03-07T06:45:24;15.65;;;10.55;;
48727;SDS011;34527;45.618;5.130;2024-03-07T06:47:49;19.42;;;13.07;;
48727;SDS011;34527;45.618;5.130;2024-03-07T06:50:17;21.10;;;12.43;;
48727;SDS011;34527;45.618;5.130;2024-03-07T06:52:45;19.27;;;13.57;;
48727;SDS011;34527;45.618;5.130;2024-03-07T06:55:13;22.75;;;14.82;;
48727;SDS011;34527;45.618;5.130;2024-03-07T06:57:45;17.17;;;14.25;;
48727;SDS011;34527;45.618;5.130;2024-03-07T07:00:12;20.05;;;13.98;;
48727;SDS011;34527;45.618;5.130;2024-03-07T07:02:39;17.85;;;13.85;;
48727;SDS011;34527;45.618;5.130;2024-03-07T07:05:06;24.67;;;13.52;;
48727;SDS011;34527;45.618;5.130;2024-03-07T07:07:36;21.85;;;15.18;;
48727;SDS011;34527;45.618;5.130;2024-03-07T07:10:03;25.88;;;15.05;;
48727;SDS011;34527;45.618;5.130;2024-03-07T07:12:32;23.45;;;14.52;;
48727;SDS011;34527;45.618;5.130;2024-03-07T07:14:58;27.25;;;16.17;;
48727;SDS011;34527;45.618;5.130;2024-03-07T07:17:23;24.13;;;16.23;;
48727;SDS011;34527;45.618;5.130;2024-03-07T07:19:50;26.88;;;17.42;;
48727;SDS011;34527;45.618;5.130;2024-03-07T07:22:17;29.00;;;17.13;;
48727;SDS011;34527;45.618;5.130;2024-03-07T07:24:43;22.98;;;16.05;;
48727;SDS011;34527;45.618;5.130;2024-03-07T07:27:09;33.47;;;20.33;;
48727;SDS011;34527;45.618;5.130;2024-03-07T07:29:34;30.73;;;19.17;;
48727;SDS011;34527;45.618;5.130;2024-03-07T07:32:00;66.45;;;45.55;;
48727;SDS011;34527;45.618;5.130;2024-03-07T07:34:25;43.50;;;30.63;;
48727;SDS011;34527;45.618;5.130;2024-03-07T07:36:51;37.63;;;24.88;;
48727;SDS011;34527;45.618;5.130;2024-03-07T07:39:18;39.47;;;24.27;;
48727;SDS011;34527;45.618;5.130;2024-03-07T07:41:44;41.83;;;26.00;;
48727;SDS011;34527;45.618;5.130;2024-03-07T07:44:09;35.10;;;22.63;;
48727;SDS011;34527;45.618;5.130;2024-03-07T07:46:35;37.13;;;22.23;;
48727;SDS011;34527;45.618;5.130;2024-03-07T07:49:01;29.10;;;19.77;;
48727;SDS011;34527;45.618;5.130;2024-03-07T07:51:27;26.92;;;17.38;;
48727;SDS011;34527;45.618;5.130;2024-03-07T07:53:53;27.08;;;17.83;;
48727;SDS011;34527;45.618;5.130;2024-03-07T07:56:21;28.45;;;15.98;;
48727;SDS011;34527;45.618;5.130;2024-03-07T07:58:47;22.58;;;13.95;;
48727;SDS011;34527;45.618;5.130;2024-03-07T08:01:14;19.60;;;12.52;;
48727;SDS011;34527;45.618;5.130;2024-03-07T08:03:41;19.48;;;12.75;;
48727;SDS011;34527;45.618;5.130;2024-03-07T08:06:09;17.30;;;11.80;;
48727;SDS011;34527;45.618;5.130;2024-03-07T08:08:34;17.17;;;11.98;;
48727;SDS011;34527;45.618;5.130;2024-03-07T08:11:00;19.38;;;12.18;;
48727;SDS011;34527;45.618;5.130;2024-03-07T08:13:26;21.75;;;11.68;;
48727;SDS011;34527;45.618;5.130;2024-03-07T08:15:52;22.88;;;11.90;;
48727;SDS011;34527;45.618;5.130;2024-03-07T08:18:19;16.55;;;10.63;;
48727;SDS011;34527;45.618;5.130;2024-03-07T08:20:45;17.15;;;10.68;;
48727;SDS011;34527;45.618;5.130;2024-03-07T08:23:11;15.88;;;10.63;;
48727;SDS011;34527;45.618;5.130;2024-03-07T08:25:37;18.00;;;11.07;;
48727;SDS011;34527;45.618;5.130;2024-03-07T08:28:07;17.08;;;11.70;;
48727;SDS011;34527;45.618;5.130;2024-03-07T08:30:33;19.30;;;11.93;;
48727;SDS011;34527;45.618;5.130;2024-03-07T08:33:00;16.67;;;11.90;;
48727;SDS011;34527;45.618;5.130;2024-03-07T08:35:28;19.42;;;11.73;;
48727;SDS011;34527;45.618;5.130;2024-03-07T08:37:54;19.63;;;12.00;;
48727;SDS011;34527;45.618;5.130;2024-03-07T08:40:21;20.02;;;12.82;;
48727;SDS011;34527;45.618;5.130;2024-03-07T08:43:00;23.45;;;11.65;;
48727;SDS011;34527;45.618;5.130;2024-03-07T08:45:27;18.48;;;10.90;;
48727;SDS011;34527;45.618;5.130;2024-03-07T08:47:54;15.90;;;11.25;;
48727;SDS011;34527;45.618;5.130;2024-03-07T08:50:21;18.92;;;12.23;;
48727;SDS011;34527;45.618;5.130;2024-03-07T08:52:48;21.08;;;12.65;;
48727;SDS011;34527;45.618;5.130;2024-03-07T08:55:17;22.20;;;12.68;;
48727;SDS011;34527;45.618;5.130;2024-03-07T08:57:45;19.88;;;12.35;;
48727;SDS011;34527;45.618;5.130;2024-03-07T09:00:12;22.50;;;12.85;;
48727;SDS011;34527;45.618;5.130;2024-03-07T09:02:49;20.65;;;11.52;;
48727;SDS011;34527;45.618;5.130;2024-03-07T09:05:18;16.42;;;11.77;;
48727;SDS011;34527;45.618;5.130;2024-03-07T09:07:45;19.30;;;11.90;;
48727;SDS011;34527;45.618;5.130;2024-03-07T09:10:12;15.95;;;10.20;;
48727;SDS011;34527;45.618;5.130;2024-03-07T09:12:39;13.85;;;10.52;;
48727;SDS011;34527;45.618;5.130;2024-03-07T09:15:05;16.08;;;10.80;;
48727;SDS011;34527;45.618;5.130;2024-03-07T09:17:31;13.18;;;10.00;;
48727;SDS011;34527;45.618;5.130;2024-03-07T09:19:57;14.10;;;9.75;;
48727;SDS011;34527;45.618;5.130;2024-03-07T09:22:23;13.70;;;10.43;;
48727;SDS011;34527;45.618;5.130;2024-03-07T09:24:49;14.45;;;9.80;;
48727;SDS011;34527;45.618;5.130;2024-03-07T09:27:14;12.02;;;8.90;;
48727;SDS011;34527;45.618;5.130;2024-03-07T09:29:40;11.82;;;9.50;;
48727;SDS011;34527;45.618;5.130;2024-03-07T09:32:06;15.10;;;9.32;;
48727;SDS011;34527;45.618;5.130;2024-03-07T09:34:34;13.13;;;9.80;;
48727;SDS011;34527;45.618;5.130;2024-03-07T09:37:01;14.73;;;10.00;;
48727;SDS011;34527;45.618;5.130;2024-03-07T09:39:27;21.02;;;10.88;;
48727;SDS011;34527;45.618;5.130;2024-03-07T09:41:52;10.75;;;8.25;;
48727;SDS011;34527;45.618;5.130;2024-03-07T09:44:20;9.45;;;8.35;;
48727;SDS011;34527;45.618;5.130;2024-03-07T09:46:50;11.43;;;8.57;;
48727;SDS011;34527;45.618;5.130;2024-03-07T09:49:17;15.95;;;8.50;;
48727;SDS011;34527;45.618;5.130;2024-03-07T09:51:44;9.98;;;8.07;;
48727;SDS011;34527;45.618;5.130;2024-03-07T09:54:12;11.63;;;8.38;;
48727;SDS011;34527;45.618;5.130;2024-03-07T09:56:39;10.45;;;8.55;;
48727;SDS011;34527;45.618;5.130;2024-03-07T09:59:08;10.60;;;7.90;;
48727;SDS011;34527;45.618;5.130;2024-03-07T10:01:38;11.30;;;8.43;;
48727;SDS011;34527;45.618;5.130;2024-03-07T10:04:07;11.63;;;7.90;;
48727;SDS011;34527;45.618;5.130;2024-03-07T10:06:41;9.57;;;7.18;;
48727;SDS011;34527;45.618;5.130;2024-03-07T10:09:06;9.25;;;7.85;;
48727;SDS011;34527;45.618;5.130;2024-03-07T10:11:33;10.73;;;7.85;;
48727;SDS011;34527;45.618;5.130;2024-03-07T10:14:01;15.35;;;8.05;;
48727;SDS011;34527;45.618;5.130;2024-03-07T10:16:33;16.70;;;9.52;;
48727;SDS011;34527;45.618;5.130;2024-03-07T10:18:59;10.25;;;7.95;;
48727;SDS011;34527;45.618;5.130;2024-03-07T10:21:29;11.55;;;7.43;;
48727;SDS011;34527;45.618;5.130;2024-03-07T10:24:04;10.88;;;7.65;;
48727;SDS011;34527;45.618;5.130;2024-03-07T10:26:34;8.40;;;7.07;;
48727;SDS011;34527;45.618;5.130;2024-03-07T10:29:00;8.27;;;7.45;;
48727;SDS011;34527;45.618;5.130;2024-03-07T10:31:30;11.25;;;7.35;;
48727;SDS011;34527;45.618;5.130;2024-03-07T10:34:03;8.98;;;7.13;;
48727;SDS011;34527;45.618;5.130;2024-03-07T10:36:29;9.43;;;6.30;;
48727;SDS011;34527;45.618;5.130;2024-03-07T10:39:02;8.73;;;6.82;;
48727;SDS011;34527;45.618;5.130;2024-03-07T10:41:48;7.25;;;6.40;;
48727;SDS011;34527;45.618;5.130;2024-03-07T10:44:33;7.40;;;6.15;;
48727;SDS011;34527;45.618;5.130;2024-03-07T10:47:06;8.13;;;5.88;;
48727;SDS011;34527;45.618;5.130;2024-03-07T10:49:36;7.00;;;6.03;;
48727;SDS011;34527;45.618;5.130;2024-03-07T10:52:17;7.70;;;6.53;;
48727;SDS011;34527;45.618;5.130;2024-03-07T10:58:01;8.07;;;5.78;;
48727;SDS011;34527;45.618;5.130;2024-03-07T11:00:31;7.40;;;5.82;;
48727;SDS011;34527;45.618;5.130;2024-03-07T11:03:01;8.27;;;5.60;;
48727;SDS011;34527;45.618;5.130;2024-03-07T11:05:32;7.50;;;5.70;;
48727;SDS011;34527;45.618;5.130;2024-03-07T11:07:58;7.28;;;4.88;;
48727;SDS011;34527;45.618;5.130;2024-03-07T11:10:30;6.88;;;5.22;;
48727;SDS011;34527;45.618;5.130;2024-03-07T11:12:56;8.80;;;5.85;;
48727;SDS011;34527;45.618;5.130;2024-03-07T11:15:23;5.45;;;4.70;;
48727;SDS011;34527;45.618;5.130;2024-03-07T11:17:52;5.50;;;4.63;;
48727;SDS011;34527;45.618;5.130;2024-03-07T11:20:20;5.32;;;4.80;;
48727;SDS011;34527;45.618;5.130;2024-03-07T11:22:50;7.53;;;4.47;;
48727;SDS011;34527;45.618;5.130;2024-03-07T11:25:18;6.85;;;4.40;;
48727;SDS011;34527;45.618;5.130;2024-03-07T11:27:58;7.05;;;4.97;;
48727;SDS011;34527;45.618;5.130;2024-03-07T11:30:25;4.30;;;3.75;;
48727;SDS011;34527;45.618;5.130;2024-03-07T11:32:51;4.85;;;3.95;;
48727;SDS011;34527;45.618;5.130;2024-03-07T11:35:19;5.35;;;3.72;;
48727;SDS011;34527;45.618;5.130;2024-03-07T11:37:56;4.65;;;4.07;;
48727;SDS011;34527;45.618;5.130;2024-03-07T11:42:49;4.97;;;3.80;;
48727;SDS011;34527;45.618;5.130;2024-03-07T11:45:17;5.28;;;4.15;;
48727;SDS011;34527;45.618;5.130;2024-03-07T11:47:51;6.00;;;3.80;;
48727;SDS011;34527;45.618;5.130;2024-03-07T11:50:32;4.55;;;3.38;;
48727;SDS011;34527;45.618;5.130;2024-03-07T11:53:00;5.72;;;3.63;;
48727;SDS011;34527;45.618;5.130;2024-03-07T11:55:26;5.93;;;3.75;;
48727;SDS011;34527;45.618;5.130;2024-03-07T11:57:55;4.80;;;3.38;;
48727;SDS011;34527;45.618;5.130;2024-03-07T12:00:20;5.03;;;3.50;;
48727;SDS011;34527;45.618;5.130;2024-03-07T12:02:49;4.22;;;3.30;;
48727;SDS011;34527;45.618;5.130;2024-03-07T12:05:15;7.55;;;3.25;;
48727;SDS011;34527;45.618;5.130;2024-03-07T12:07:41;4.07;;;3.13;;
48727;SDS011;34527;45.618;5.130;2024-03-07T12:10:08;6.07;;;3.28;;
48727;SDS011;34527;45.618;5.130;2024-03-07T12:12:35;4.47;;;3.00;;
48727;SDS011;34527;45.618;5.130;2024-03-07T12:15:03;4.13;;;2.88;;
48727;SDS011;34527;45.618;5.130;2024-03-07T12:17:40;3.58;;;3.13;;
48727;SDS011;34527;45.618;5.130;2024-03-07T12:20:08;3.95;;;2.78;;
48727;SDS011;34527;45.618;5.130;2024-03-07T12:22:50;3.70;;;3.05;;
48727;SDS011;34527;45.618;5.130;2024-03-07T12:25:19;6.18;;;3.30;;
48727;SDS011;34527;45.618;5.130;2024-03-07T12:30:47;4.82;;;3.03;;
48727;SDS011;34527;45.618;5.130;2024-03-07T12:33:20;3.40;;;3.10;;
48727;SDS011;34527;45.618;5.130;2024-03-07T12:35:48;4.53;;;3.00;;
48727;SDS011;34527;45.618;5.130;2024-03-07T12:38:16;3.22;;;2.90;;
48727;SDS011;34527;45.618;5.130;2024-03-07T12:40:43;5.15;;;3.65;;
48727;SDS011;34527;45.618;5.130;2024-03-07T12:43:18;3.42;;;2.85;;
48727;SDS011;34527;45.618;5.130;2024-03-07T12:45:49;4.72;;;2.97;;
48727;SDS011;34527;45.618;5.130;2024-03-07T12:48:16;3.35;;;2.90;;
48727;SDS011;34527;45.618;5.130;2024-03-07T12:50:44;3.75;;;3.05;;
48727;SDS011;34527;45.618;5.130;2024-03-07T12:53:10;3.75;;;2.88;;
48727;SDS011;34527;45.618;5.130;2024-03-07T12:55:39;4.88;;;2.80;;
48727;SDS011;34527;45.618;5.130;2024-03-07T12:58:07;5.13;;;2.63;;
48727;SDS011;34527;45.618;5.130;2024-03-07T13:00:39;4.70;;;2.50;;
48727;SDS011;34527;45.618;5.130;2024-03-07T13:03:06;3.10;;;2.30;;
48727;SDS011;34527;45.618;5.130;2024-03-07T13:05:33;4.00;;;2.80;;
48727;SDS011;34527;45.618;5.130;2024-03-07T13:07:59;2.70;;;2.50;;
48727;SDS011;34527;45.618;5.130;2024-03-07T13:10:25;4.32;;;2.53;;
48727;SDS011;34527;45.618;5.130;2024-03-07T13:12:50;3.63;;;2.40;;
48727;SDS011;34527;45.618;5.130;2024-03-07T13:15:17;3.40;;;2.55;;
48727;SDS011;34527;45.618;5.130;2024-03-07T13:17:43;4.13;;;2.40;;
48727;SDS011;34527;45.618;5.130;2024-03-07T13:20:10;3.97;;;2.50;;
48727;SDS011;34527;45.618;5.130;2024-03-07T13:22:43;3.50;;;2.33;;
48727;SDS011;34527;45.618;5.130;2024-03-07T13:25:24;3.67;;;2.78;;
48727;SDS011;34527;45.618;5.130;2024-03-07T13:30:33;3.65;;;2.60;;
48727;SDS011;34527;45.618;5.130;2024-03-07T13:33:03;3.58;;;2.47;;
48727;SDS011;34527;45.618;5.130;2024-03-07T13:35:29;3.33;;;2.75;;
48727;SDS011;34527;45.618;5.130;2024-03-07T13:37:55;3.65;;;2.80;;
48727;SDS011;34527;45.618;5.130;2024-03-07T13:40:25;3.60;;;2.75;;
48727;SDS011;34527;45.618;5.130;2024-03-07T13:42:55;3.22;;;2.50;;
48727;SDS011;34527;45.618;5.130;2024-03-07T13:45:28;2.92;;;2.15;;
48727;SDS011;34527;45.618;5.130;2024-03-07T13:48:03;2.30;;;2.10;;
48727;SDS011;34527;45.618;5.130;2024-03-07T13:50:30;2.78;;;2.33;;
48727;SDS011;34527;45.618;5.130;2024-03-07T13:52:57;2.67;;;2.20;;
48727;SDS011;34527;45.618;5.130;2024-03-07T14:06:54;2.75;;;2.10;;
48727;SDS011;34527;45.618;5.130;2024-03-07T14:24:02;2.70;;;1.80;;
48727;SDS011;34527;45.618;5.130;2024-03-07T14:29:20;2.45;;;1.95;;
48727;SDS011;34527;45.618;5.130;2024-03-07T14:32:05;3.28;;;2.10;;
48727;SDS011;34527;45.618;5.130;2024-03-07T14:37:24;5.13;;;2.72;;
48727;SDS011;34527;45.618;5.130;2024-03-07T14:39:56;6.60;;;2.78;;
48727;SDS011;34527;45.618;5.130;2024-03-07T14:42:35;5.20;;;2.70;;
48727;SDS011;34527;45.618;5.130;2024-03-07T14:45:07;3.00;;;2.17;;
48727;SDS011;34527;45.618;5.130;2024-03-07T14:47:38;3.50;;;2.10;;
48727;SDS011;34527;45.618;5.130;2024-03-07T14:50:03;3.83;;;2.10;;
48727;SDS011;34527;45.618;5.130;2024-03-07T14:52:30;2.30;;;2.10;;
48727;SDS011;34527;45.618;5.130;2024-03-07T14:54:56;2.35;;;1.80;;
48727;SDS011;34527;45.618;5.130;2024-03-07T14:57:22;2.80;;;1.55;;
48727;SDS011;34527;45.618;5.130;2024-03-07T14:59:48;3.15;;;1.15;;
48727;SDS011;34527;45.618;5.130;2024-03-07T15:02:15;4.97;;;1.70;;
48727;SDS011;34527;45.618;5.130;2024-03-07T15:04:41;1.65;;;1.20;;
48727;SDS011;34527;45.618;5.130;2024-03-07T15:07:08;1.95;;;1.20;;
48727;SDS011;34527;45.618;5.130;2024-03-07T15:09:35;2.30;;;1.40;;
48727;SDS011;34527;45.618;5.130;2024-03-07T15:12:01;1.98;;;1.25;;
48727;SDS011;34527;45.618;5.130;2024-03-07T15:14:27;1.63;;;1.00;;
48727;SDS011;34527;45.618;5.130;2024-03-07T15:16:52;1.70;;;1.40;;